Date,TemperatureHighF,TemperatureAvgF,TemperatureLowF,DewpointHighF,DewpointAvgF,DewpointLowF,HumidityHigh,HumidityAvg,HumidityLow,PressureMaxIn,PressureMinIn,WindSpeedMaxMPH,WindSpeedAvgMPH,GustSpeedMaxMPH,PrecipitationSumIn
2012-1-1,29,21,8,-100,-100,-100,0,0,100,0.00,40.00,0,-999,0,0.05
2012-1-2,45,27,1,-100,-100,-100,0,0,100,0.00,40.00,0,-999,0,0.01
2012-1-3,41,32,20,-100,-100,-100,0,0,100,0.00,40.00,0,-999,0,0.00
2012-1-4,42,31,20,-100,-100,-100,0,0,100,0.00,40.00,0,-999,0,0.00
2012-1-5,47,35,19,-100,-100,-100,0,0,100,0.00,40.00,0,-999,0,0.00
2012-1-6,35,27,11,-100,-100,-100,0,0,100,0.00,40.00,0,-999,0,0.00
2012-1-7,29,18,-7,-100,-100,-100,0,0,100,0.00,40.00,0,-999,0,0.00
2012-1-8,24,10,-10,-100,-100,-100,0,0,100,0.00,40.00,0,-999,0,0.00
2012-1-9,35,15,3,-100,-100,-100,0,0,100,0.00,40.00,0,-999,0,0.00
2012-1-10,43,23,3,-100,-100,-100,0,0,100,0.00,40.00,0,-999,0,0.00
2012-1-11,25,9,2,-100,-100,-100,0,0,100,0.00,40.00,0,-999,0,0.00
2012-1-12,19,10,-5,-100,-100,-100,0,0,100,0.00,40.00,0,-999,0,0.03
2012-1-13,26,20,-5,-100,-100,-100,0,0,100,0.00,40.00,0,-999,0,0.01
2012-1-14,39,31,20,-100,-100,-100,0,0,100,0.00,40.00,0,-999,0,0.01
2012-1-15,41,34,30,-100,-100,-100,0,0,100,0.00,40.00,0,-999,0,0.00
2012-1-16,32,20,1,-100,-100,-100,0,0,100,0.00,40.00,0,-999,0,0.00
2012-1-17,10,6,-3,-100,-100,-100,0,0,100,0.00,40.00,0,-999,0,0.00
2012-1-18,29,21,10,-100,-100,-100,0,0,100,0.00,40.00,0,-999,0,0.00
2012-1-19,38,34,29,-100,-100,-100,0,0,100,0.00,40.00,0,-999,0,0.05
2012-1-20,33,31,29,-100,-100,-100,0,0,100,0.00,40.00,0,-999,0,0.10
2012-1-21,42,34,30,-100,-100,-100,0,0,100,0.00,40.00,0,-999,0,0.03
2012-1-22,30,19,14,-100,-100,-100,0,0,100,0.00,40.00,0,-999,0,0.02
2012-1-23,33,21,9,-100,-100,-100,0,0,100,0.00,40.00,0,-999,0,0.13
2012-1-24,25,19,-2,-100,-100,-100,0,0,100,0.00,40.00,0,-999,0,0.06
2012-1-25,35,27,15,-100,-100,-100,0,0,100,0.00,40.00,0,-999,0,0.01
2012-1-26,36,29,25,-100,-100,-100,0,0,100,0.00,40.00,0,-999,0,0.01
2012-1-27,26,16,3,-100,-100,-100,0,0,100,0.00,40.00,0,-999,0,0.07
2012-1-28,23,16,3,-100,-100,-100,0,0,100,0.00,40.00,0,-999,0,0.01
2012-1-29,38,28,21,-100,-100,-100,0,0,100,0.00,40.00,0,-999,0,0.01
2012-1-30,37,31,22,-100,-100,-100,0,0,100,0.00,40.00,0,-999,0,0.00
2012-1-31,32,23,12,-100,-100,-100,0,0,100,0.00,40.00,0,-999,0,0.00
2012-2-1,37,26,10,-100,-100,-100,0,0,100,0.00,40.00,0,-999,0,0.00
2012-2-2,31,22,4,-100,-100,-100,0,0,100,0.00,40.00,0,-999,0,0.00
2012-2-3,21,17,-9,-100,-100,-100,0,0,100,0.00,40.00,0,-999,0,0.01
2012-2-4,19,8,-12,-100,-100,-100,0,0,100,0.00,40.00,0,-999,0,0.01
2012-2-5,25,12,-15,-100,-100,-100,0,0,100,0.00,40.00,0,-999,0,0.01
2012-2-6,24,5,-17,-100,-100,-100,0,0,100,0.00,40.00,0,-999,0,0.00
2012-2-7,20,8,-13,-100,-100,-100,0,0,100,0.00,40.00,0,-999,0,0.01
2012-2-8,30,24,20,-100,-100,-100,0,0,100,0.00,40.00,0,-999,0,0.01
2012-2-9,28,18,-10,-100,-100,-100,0,0,100,0.00,40.00,0,-999,0,0.01
2012-2-10,28,22,14,-100,-100,-100,0,0,100,0.00,40.00,0,-999,0,0.01
2012-2-11,30,20,10,-100,-100,-100,0,0,100,0.00,40.00,0,-999,0,0.06
2012-2-12,36,24,3,-100,-100,-100,0,0,100,0.00,40.00,0,-999,0,0.08
2012-2-13,30,23,18,-100,-100,-100,0,0,100,0.00,40.00,0,-999,0,0.08
2012-2-14,28,21,8,-100,-100,-100,0,0,100,0.00,40.00,0,-999,0,0.01
2012-2-15,29,18,3,-100,-100,-100,0,0,100,0.00,40.00,0,-999,0,0.02
2012-2-16,29,19,1,-100,-100,-100,0,0,100,0.00,40.00,0,-999,0,0.01
2012-2-17,23,16,-9,-100,-100,-100,0,0,100,0.00,40.00,0,-999,0,0.00
2012-2-18,32,20,-9,-100,-100,-100,0,0,100,0.00,40.00,0,-999,0,0.01
2012-2-19,34,21,4,-100,-100,-100,0,0,100,0.00,40.00,0,-999,0,0.01
2012-2-20,18,14,7,-100,-100,-100,0,0,100,0.00,40.00,0,-999,0,0.01
2012-2-21,28,22,16,-100,-100,-100,0,0,100,0.00,40.00,0,-999,0,0.01
2012-2-22,32,30,28,-100,-100,-100,0,0,100,0.00,40.00,0,-999,0,0.01
2012-2-23,28,14,-1,-100,-100,-100,0,0,100,0.00,40.00,0,-999,0,0.03
2012-2-24,22,14,6,-100,-100,-100,0,0,100,0.00,40.00,0,-999,0,0.03
2012-2-25,38,22,11,-100,-100,-100,0,0,100,0.00,40.00,0,-999,0,0.01
2012-2-26,18,10,-2,-100,-100,-100,0,0,100,0.00,40.00,0,-999,0,0.01
2012-2-27,41,21,-10,-100,-100,-100,0,0,100,0.00,40.00,0,-999,0,0.04
2012-2-28,31,25,15,-100,-100,-100,0,0,100,0.00,40.00,0,-999,0,0.01
2012-2-29,31,22,13,-100,-100,-100,0,0,100,0.00,40.00,0,-999,0,0.01
2012-3-1,22,17,10,-100,-100,-100,0,0,100,0.00,40.00,0,-999,0,0.02
2012-3-2,16,9,-17,-100,-100,-100,0,0,100,0.00,40.00,0,-999,0,0.01
2012-3-3,25,17,9,-100,-100,-100,0,0,100,0.00,40.00,0,-999,0,0.01
2012-3-4,35,30,25,-100,-100,-100,0,0,100,0.00,40.00,0,-999,0,0.01
2012-3-5,43,36,27,-100,-100,-100,0,0,100,0.00,40.00,0,-999,0,0.01
2012-3-6,49,40,30,-100,-100,-100,0,0,100,0.00,40.00,0,-999,0,0.00
2012-3-7,29,22,14,-100,-100,-100,0,0,100,0.00,40.00,0,-999,0,0.00
2012-3-8,39,22,-4,-100,-100,-100,0,0,100,0.00,40.00,0,-999,0,0.00
2012-3-9,44,24,-2,-100,-100,-100,0,0,100,0.00,40.00,0,-999,0,0.00
2012-3-10,52,28,7,-100,-100,-100,0,0,100,0.00,40.00,0,-999,0,0.00
2012-3-11,47,31,11,-100,-100,-100,0,0,100,0.00,40.00,0,-999,0,0.00
2012-3-12,48,38,25,-100,-100,-100,0,0,100,0.00,40.00,0,-999,0,0.00
2012-3-13,49,42,35,-100,-100,-100,0,0,100,0.00,40.00,0,-999,0,0.00
2012-3-14,50,43,32,-100,-100,-100,0,0,100,0.00,40.00,0,-999,0,0.00
2012-3-15,53,41,30,-100,-100,-100,0,0,100,0.00,40.00,0,-999,0,0.00
2012-3-16,54,42,27,-100,-100,-100,0,0,100,0.00,40.00,0,-999,0,0.00
2012-3-17,56,43,27,-100,-100,-100,0,0,100,0.00,40.00,0,-999,0,0.00
2012-3-18,53,35,20,-100,-100,-100,0,0,100,0.00,40.00,0,-999,0,0.00
2012-3-19,26,22,18,-100,-100,-100,0,0,100,0.00,40.00,0,-999,0,0.06
2012-3-20,32,24,5,-100,-100,-100,0,0,100,0.00,40.00,0,-999,0,0.05
2012-3-21,47,32,22,-100,-100,-100,0,0,100,0.00,40.00,0,-999,0,0.01
2012-3-22,53,35,21,-100,-100,-100,0,0,100,0.00,40.00,0,-999,0,0.00
2012-3-23,63,39,18,-100,-100,-100,0,0,100,0.00,40.00,0,-999,0,0.00
2012-3-24,61,41,21,-100,-100,-100,0,0,100,0.00,40.00,0,-999,0,0.00
2012-3-25,60,43,25,-100,-100,-100,0,0,100,0.00,40.00,0,-999,0,0.00
2012-3-26,58,39,26,-100,-100,-100,0,0,100,0.00,40.00,0,-999,0,0.00
2012-3-27,48,35,25,-100,-100,-100,0,0,100,0.00,40.00,0,-999,0,0.00
2012-3-28,57,42,24,-100,-100,-100,0,0,100,0.00,40.00,0,-999,0,0.00
2012-3-29,50,40,29,-100,-100,-100,0,0,100,0.00,40.00,0,-999,0,0.05
2012-3-30,57,46,37,-100,-100,-100,0,0,100,0.00,40.00,0,-999,0,0.02
2012-3-31,65,52,30,-100,-100,-100,0,0,100,0.00,40.00,0,-999,0,0.00
2012-4-1,64,52,33,-100,-100,-100,0,0,100,0.00,40.00,0,-999,0,0.00
2012-4-2,33,27,25,-100,-100,-100,0,0,100,0.00,40.00,0,-999,0,0.04
2012-4-3,43,30,23,-100,-100,-100,0,0,100,0.00,40.00,0,-999,0,0.04
2012-4-4,58,42,19,-100,-100,-100,0,0,100,0.00,40.00,0,-999,0,0.01
2012-4-5,59,49,27,-100,-100,-100,0,0,100,0.00,40.00,0,-999,0,0.00
2012-4-6,50,39,22,-100,-100,-100,0,0,100,0.00,40.00,0,-999,0,0.00
2012-4-7,46,30,18,-100,-100,-100,0,0,100,0.00,40.00,0,-999,0,0.00
2012-4-8,56,42,23,-100,-100,-100,0,0,100,0.00,40.00,0,-999,0,0.00
2012-4-9,61,47,17,-100,-100,-100,0,0,100,0.00,40.00,0,-999,0,0.00
2012-4-10,66,52,19,-100,-100,-100,0,0,100,0.00,40.00,0,-999,0,0.00
2012-4-11,67,52,25,-100,-100,-100,0,0,100,0.00,40.00,0,-999,0,0.18
2012-4-12,43,38,31,-100,-100,-100,0,0,100,0.00,40.00,0,-999,0,0.18
2012-4-13,42,34,27,-100,-100,-100,0,0,100,0.00,40.00,0,-999,0,0.14
2012-4-14,39,32,28,-100,-100,-100,0,0,100,0.00,40.00,0,-999,0,0.03
2012-4-15,32,28,24,-100,-100,-100,0,0,100,0.00,40.00,0,-999,0,0.14
2012-4-16,43,33,26,-100,-100,-100,0,0,100,0.00,40.00,0,-999,0,0.20
2012-4-17,49,39,32,-100,-100,-100,0,0,100,0.00,40.00,0,-999,0,0.01
2012-4-18,50,41,28,-100,-100,-100,0,0,100,0.00,40.00,0,-999,0,0.06
2012-4-19,45,41,34,-100,-100,-100,0,0,100,0.00,40.00,0,-999,0,0.33
2012-4-20,56,42,27,-100,-100,-100,0,0,100,0.00,40.00,0,-999,0,0.01
2012-4-21,62,50,35,-100,-100,-100,0,0,100,0.00,40.00,0,-999,0,0.00
2012-4-22,65,54,23,-100,-100,-100,0,0,100,0.00,40.00,0,-999,0,0.00
2012-4-23,70,58,29,-100,-100,-100,0,0,100,0.00,40.00,0,-999,0,0.00
2012-4-24,68,57,30,-100,-100,-100,0,0,100,0.00,40.00,0,-999,0,0.00
2012-4-25,63,54,32,-100,-100,-100,0,0,100,0.00,40.00,0,-999,0,0.00
2012-4-26,63,52,41,-100,-100,-100,0,0,100,0.00,40.00,0,-999,0,0.02
2012-4-27,45,36,25,-100,-100,-100,0,0,100,0.00,40.00,0,-999,0,0.02
2012-4-28,42,31,23,-100,-100,-100,0,0,100,0.00,40.00,0,-999,0,0.01
2012-4-29,46,34,18,-100,-100,-100,0,0,100,0.00,40.00,0,-999,0,0.00
2012-4-30,58,45,26,-100,-100,-100,0,0,100,0.00,40.00,0,-999,0,0.00
2012-5-1,48,43,33,-100,-100,-100,0,0,100,0.00,40.00,0,-999,0,0.01
2012-5-2,52,42,36,-100,-100,-100,0,0,100,0.00,40.00,0,-999,0,0.56
2012-5-3,64,53,30,-100,-100,-100,0,0,100,0.00,40.00,0,-999,0,0.02
2012-5-4,67,56,29,-100,-100,-100,0,0,100,0.00,40.00,0,-999,0,0.00
2012-5-5,59,48,28,-100,-100,-100,0,0,100,0.00,40.00,0,-999,0,0.00
2012-5-6,46,37,21,-100,-100,-100,0,0,100,0.00,40.00,0,-999,0,0.00
2012-5-7,46,37,27,-100,-100,-100,0,0,100,0.00,40.00,0,-999,0,0.00
2012-5-8,55,40,19,-100,-100,-100,0,0,100,0.00,40.00,0,-999,0,0.00
2012-5-9,65,55,22,-100,-100,-100,0,0,100,0.00,40.00,0,-999,0,0.00
2012-5-10,68,56,30,-100,-100,-100,0,0,100,0.00,40.00,0,-999,0,0.00
2012-5-11,55,39,27,-100,-100,-100,0,0,100,0.00,40.00,0,-999,0,0.00
2012-5-12,57,40,21,-100,-100,-100,0,0,100,0.00,40.00,0,-999,0,0.02
2012-5-13,58,42,24,-100,-100,-100,0,0,100,0.00,40.00,0,-999,0,0.01
2012-5-14,66,45,20,-100,-100,-100,0,0,100,0.00,40.00,0,-999,0,0.00
2012-5-15,70,51,26,-100,-100,-100,0,0,100,0.00,40.00,0,-999,0,0.00
2012-5-16,69,55,34,-100,-100,-100,0,0,100,0.00,40.00,0,-999,0,0.00
2012-5-17,65,54,34,-100,-100,-100,0,0,100,0.00,40.00,0,-999,0,0.00
2012-5-18,65,51,36,-100,-100,-100,0,0,100,0.00,40.00,0,-999,0,0.01
2012-5-19,46,38,30,-100,-100,-100,0,0,100,0.00,40.00,0,-999,0,0.13
2012-5-20,61,44,28,-100,-100,-100,0,0,100,0.00,40.00,0,-999,0,0.02
2012-5-21,69,50,29,-100,-100,-100,0,0,100,0.00,40.00,0,-999,0,0.00
2012-5-22,73,58,35,-100,-100,-100,0,0,100,0.00,40.00,0,-999,0,0.00
2012-5-23,52,42,32,-100,-100,-100,0,0,100,0.00,40.00,0,-999,0,0.33
2012-5-24,47,38,29,-100,-100,-100,0,0,100,0.00,40.00,0,-999,0,0.09
2012-5-25,70,50,29,-100,-100,-100,0,0,100,0.00,40.00,0,-999,0,0.02
2012-5-26,72,58,35,-100,-100,-100,0,0,100,0.00,40.00,0,-999,0,0.01
2012-5-27,49,40,33,-100,-100,-100,0,0,100,0.00,40.00,0,-999,0,0.02
2012-5-28,54,43,34,-100,-100,-100,0,0,100,0.00,40.00,0,-999,0,0.02
2012-5-29,63,47,25,-100,-100,-100,0,0,100,0.00,40.00,0,-999,0,0.00
2012-5-30,63,51,29,-100,-100,-100,0,0,100,0.00,40.00,0,-999,0,0.00
2012-5-31,64,54,42,-100,-100,-100,0,0,100,0.00,40.00,0,-999,0,0.00
2012-6-1,68,56,39,-100,-100,-100,0,0,100,0.00,40.00,0,-999,0,0.00
2012-6-2,72,54,34,-100,-100,-100,0,0,100,0.00,40.00,0,-999,0,0.00
2012-6-3,74,58,37,-100,-100,-100,0,0,100,0.00,40.00,0,-999,0,0.00
2012-6-4,78,59,35,-100,-100,-100,0,0,100,0.00,40.00,0,-999,0,0.00
2012-6-5,73,64,47,-100,-100,-100,0,0,100,0.00,40.00,0,-999,0,0.00
2012-6-6,66,51,33,-100,-100,-100,0,0,100,0.00,40.00,0,-999,0,0.00
2012-6-7,68,52,34,-100,-100,-100,0,0,100,0.00,40.00,0,-999,0,0.00
2012-6-8,76,58,33,-100,-100,-100,0,0,100,0.00,40.00,0,-999,0,0.00
2012-6-9,74,62,43,-100,-100,-100,0,0,100,0.00,40.00,0,-999,0,0.00
2012-6-10,54,44,32,-100,-100,-100,0,0,100,0.00,40.00,0,-999,0,0.00
2012-6-11,63,48,28,-100,-100,-100,0,0,100,0.00,40.00,0,-999,0,0.00
2012-6-12,65,50,29,-100,-100,-100,0,0,100,0.00,40.00,0,-999,0,0.00
2012-6-13,75,58,32,-100,-100,-100,0,0,100,0.00,40.00,0,-999,0,0.00
2012-6-14,74,57,38,-100,-100,-100,0,0,100,0.00,40.00,0,-999,0,0.03
2012-6-15,75,56,37,-100,-100,-100,0,0,100,0.00,40.00,0,-999,0,0.03
2012-6-16,71,52,39,-100,-100,-100,0,0,100,0.00,40.00,0,-999,0,0.00
2012-6-17,78,61,36,-100,-100,-100,0,0,100,0.00,40.00,0,-999,0,0.00
2012-6-18,77,67,49,-100,-100,-100,0,0,100,0.00,40.00,0,-999,0,0.00
2012-6-19,74,62,46,-100,-100,-100,0,0,100,0.00,40.00,0,-999,0,0.00
2012-6-20,59,52,37,-100,-100,-100,0,0,100,0.00,40.00,0,-999,0,0.00
2012-6-21,77,56,29,-100,-100,-100,0,0,100,0.00,40.00,0,-999,0,0.00
2012-6-22,79,61,34,-100,-100,-100,0,0,100,0.00,40.00,0,-999,0,0.00
2012-6-23,82,62,34,-100,-100,-100,0,0,100,0.00,40.00,0,-999,0,0.00
2012-6-24,84,64,39,-100,-100,-100,0,0,100,0.00,40.00,0,-999,0,0.00
2012-6-25,87,67,44,-100,-100,-100,0,0,100,0.00,40.00,0,-999,0,0.00
2012-6-26,80,65,42,-100,-100,-100,0,0,100,0.00,40.00,0,-999,0,0.00
2012-6-27,77,64,45,-100,-100,-100,0,0,100,0.00,40.00,0,-999,0,0.00
2012-6-28,81,62,35,-100,-100,-100,0,0,100,0.00,40.00,0,-999,0,0.00
2012-6-29,81,64,41,-100,-100,-100,0,0,100,0.00,40.00,0,-999,0,0.00
2012-6-30,80,68,47,-100,-100,-100,0,0,100,0.00,40.00,0,-999,0,0.00
2012-7-1,83,69,45,-100,-100,-100,0,0,100,0.00,40.00,0,-999,0,0.00
2012-7-2,80,64,44,-100,-100,-100,0,0,100,0.00,40.00,0,-999,0,0.00
2012-7-3,81,66,45,-100,-100,-100,0,0,100,0.00,40.00,0,-999,0,0.00
2012-7-4,80,63,41,-100,-100,-100,0,0,100,0.00,40.00,0,-999,0,0.00
2012-7-5,79,65,53,-100,-100,-100,0,0,100,0.00,40.00,0,-999,0,0.99
2012-7-6,69,57,51,-100,-100,-100,0,0,100,0.00,40.00,0,-999,0,0.85
2012-7-7,64,57,51,-100,-100,-100,0,0,100,0.00,40.00,0,-999,0,0.26
2012-7-8,70,60,49,-100,-100,-100,0,0,100,0.00,40.00,0,-999,0,0.00
2012-7-9,74,62,38,-100,-100,-100,0,0,100,0.00,40.00,0,-999,0,0.02
2012-7-10,76,63,40,-100,-100,-100,0,0,100,0.00,40.00,0,-999,0,0.02
2012-7-11,80,65,41,-100,-100,-100,0,0,100,0.00,40.00,0,-999,0,0.00
2012-7-12,78,64,40,-100,-100,-100,0,0,100,0.00,40.00,0,-999,0,0.00
2012-7-13,81,68,42,-100,-100,-100,0,0,100,0.00,40.00,0,-999,0,0.06
2012-7-14,74,65,48,-100,-100,-100,0,0,100,0.00,40.00,0,-999,0,0.02
2012-7-15,76,62,55,-100,-100,-100,0,0,100,0.00,40.00,0,-999,0,0.10
2012-7-16,71,62,50,-100,-100,-100,0,0,100,0.00,40.00,0,-999,0,0.01
2012-7-17,74,63,44,-100,-100,-100,0,0,100,0.00,40.00,0,-999,0,0.01
2012-7-18,79,65,37,-100,-100,-100,0,0,100,0.00,40.00,0,-999,0,0.00
2012-7-19,83,68,43,-100,-100,-100,0,0,100,0.00,40.00,0,-999,0,0.00
2012-7-20,79,69,55,-100,-100,-100,0,0,100,0.00,40.00,0,-999,0,0.09
2012-7-21,82,66,52,-100,-100,-100,0,0,100,0.00,40.00,0,-999,0,0.12
2012-7-22,78,66,53,-100,-100,-100,0,0,100,0.00,40.00,0,-999,0,0.02
2012-7-23,79,66,51,-100,-100,-100,0,0,100,0.00,40.00,0,-999,0,0.33
2012-7-24,73,60,49,-100,-100,-100,0,0,100,0.00,40.00,0,-999,0,0.50
2012-7-25,73,61,46,-100,-100,-100,0,0,100,0.00,40.00,0,-999,0,0.02
2012-7-26,74,62,40,-100,-100,-100,0,0,100,0.00,40.00,0,-999,0,0.00
2012-7-27,79,63,45,-100,-100,-100,0,0,100,0.00,40.00,0,-999,0,0.02
2012-7-28,79,66,44,-100,-100,-100,0,0,100,0.00,40.00,0,-999,0,0.01
2012-7-29,73,61,50,-100,-100,-100,0,0,100,0.00,40.00,0,-999,0,0.01
2012-7-30,74,61,41,-100,-100,-100,0,0,100,0.00,40.00,0,-999,0,0.00
2012-7-31,76,64,48,-100,-100,-100,0,0,100,0.00,40.00,0,-999,0,0.00
2012-8-1,74,64,49,-100,-100,-100,0,0,100,0.00,40.00,0,-999,0,0.00
2012-8-2,77,63,47,-100,-100,-100,0,0,100,0.00,40.00,0,-999,0,0.00
2012-8-3,77,61,36,-100,-100,-100,0,0,100,0.00,40.00,0,-999,0,0.00
2012-8-4,72,55,36,-100,-100,-100,0,0,100,0.00,40.00,0,-999,0,0.00
2012-8-5,81,60,35,-100,-100,-100,0,0,100,0.00,40.00,0,-999,0,0.00
2012-8-6,74,61,43,-100,-100,-100,0,0,100,0.00,40.00,0,-999,0,0.00
2012-8-7,77,60,41,-100,-100,-100,0,0,100,0.00,40.00,0,-999,0,0.00
2012-8-8,82,61,37,-100,-100,-100,0,0,100,0.00,40.00,0,-999,0,0.00
2012-8-9,84,65,44,-100,-100,-100,0,0,100,0.00,40.00,0,-999,0,0.00
2012-8-10,81,63,41,-100,-100,-100,0,0,100,0.00,40.00,0,-999,0,0.00
2012-8-11,68,60,43,-100,-100,-100,0,0,100,0.00,40.00,0,-999,0,0.04
2012-8-12,74,56,33,-100,-100,-100,0,0,100,0.00,40.00,0,-999,0,0.02
2012-8-13,72,56,39,-100,-100,-100,0,0,100,0.00,40.00,0,-999,0,0.05
2012-8-14,74,56,40,-100,-100,-100,0,0,100,0.00,40.00,0,-999,0,0.05
2012-8-15,76,58,38,-100,-100,-100,0,0,100,0.00,40.00,0,-999,0,0.00
2012-8-16,70,52,35,-100,-100,-100,0,0,100,0.00,40.00,0,-999,0,0.00
2012-8-17,75,58,35,-100,-100,-100,0,0,100,0.00,40.00,0,-999,0,0.00
2012-8-18,70,56,36,-100,-100,-100,0,0,100,0.00,40.00,0,-999,0,0.00
2012-8-19,74,54,30,-100,-100,-100,0,0,100,0.00,40.00,0,-999,0,0.00
2012-8-20,71,55,41,-100,-100,-100,0,0,100,0.00,40.00,0,-999,0,0.00
2012-8-21,76,58,35,-100,-100,-100,0,0,100,0.00,40.00,0,-999,0,0.00
2012-8-22,71,60,39,-100,-100,-100,0,0,100,0.00,40.00,0,-999,0,0.00
2012-8-23,75,62,40,-100,-100,-100,0,0,100,0.00,40.00,0,-999,0,0.00
2012-8-24,75,61,38,-100,-100,-100,0,0,100,0.00,40.00,0,-999,0,0.00
2012-8-25,73,60,32,-100,-100,-100,0,0,100,0.00,40.00,0,-999,0,0.00
2012-8-26,75,61,34,-100,-100,-100,0,0,100,0.00,40.00,0,-999,0,0.00
2012-8-27,78,63,43,-100,-100,-100,0,0,100,0.00,40.00,0,-999,0,0.12
2012-8-28,78,65,45,-100,-100,-100,0,0,100,0.00,40.00,0,-999,0,0.02
2012-8-29,79,66,44,-100,-100,-100,0,0,100,0.00,40.00,0,-999,0,0.02
2012-8-30,76,58,41,-100,-100,-100,0,0,100,0.00,40.00,0,-999,0,0.13
2012-8-31,75,58,43,-100,-100,-100,0,0,100,0.00,40.00,0,-999,0,0.18
2012-9-1,71,59,42,-100,-100,-100,0,0,100,0.00,40.00,0,-999,0,0.09
2012-9-2,69,59,47,-100,-100,-100,0,0,100,0.00,40.00,0,-999,0,0.09
2012-9-3,70,60,41,-100,-100,-100,0,0,100,0.00,40.00,0,-999,0,0.00
2012-9-4,72,60,34,-100,-100,-100,0,0,100,0.00,40.00,0,-999,0,0.00
2012-9-5,72,58,30,-100,-100,-100,0,0,100,0.00,40.00,0,-999,0,0.00
2012-9-6,74,59,31,-100,-100,-100,0,0,100,0.00,40.00,0,-999,0,0.00
2012-9-7,61,50,36,-100,-100,-100,0,0,100,0.00,40.00,0,-999,0,0.01
2012-9-8,68,51,23,-100,-100,-100,0,0,100,0.00,40.00,0,-999,0,0.01
2012-9-9,75,59,28,-100,-100,-100,0,0,100,0.00,40.00,0,-999,0,0.00
2012-9-10,76,64,42,-100,-100,-100,0,0,100,0.00,40.00,0,-999,0,0.00
2012-9-11,69,52,37,-100,-100,-100,0,0,100,0.00,40.00,0,-999,0,0.27
2012-9-12,59,49,36,-100,-100,-100,0,0,100,0.00,40.00,0,-999,0,0.01
2012-9-13,64,45,25,-100,-100,-100,0,0,100,0.00,40.00,0,-999,0,0.00
2012-9-14,71,47,25,-100,-100,-100,0,0,100,0.00,40.00,0,-999,0,0.00
2012-9-15,72,49,27,-100,-100,-100,0,0,100,0.00,40.00,0,-999,0,0.00
2012-9-16,68,52,28,-100,-100,-100,0,0,100,0.00,40.00,0,-999,0,0.00
2012-9-17,58,47,30,-100,-100,-100,0,0,100,0.00,40.00,0,-999,0,0.00
2012-9-18,66,46,27,-100,-100,-100,0,0,100,0.00,40.00,0,-999,0,0.00
2012-9-19,68,53,33,-100,-100,-100,0,0,100,0.00,40.00,0,-999,0,0.00
2012-9-20,68,49,28,-100,-100,-100,0,0,100,0.00,40.00,0,-999,0,0.00
2012-9-21,67,48,28,-100,-100,-100,0,0,100,0.00,40.00,0,-999,0,0.00
2012-9-22,71,49,27,-100,-100,-100,0,0,100,0.00,40.00,0,-999,0,0.00
2012-9-23,74,53,29,-100,-100,-100,0,0,100,0.00,40.00,0,-999,0,0.00
2012-9-24,64,51,37,-100,-100,-100,0,0,100,0.00,40.00,0,-999,0,0.09
2012-9-25,59,47,37,-100,-100,-100,0,0,100,0.00,40.00,0,-999,0,0.29
2012-9-26,52,46,38,-100,-100,-100,0,0,100,0.00,40.00,0,-999,0,0.02
2012-9-27,58,45,35,-100,-100,-100,0,0,100,0.00,40.00,0,-999,0,0.12
2012-9-28,62,46,29,-100,-100,-100,0,0,100,0.00,40.00,0,-999,0,0.03
2012-9-29,63,45,29,-100,-100,-100,0,0,100,0.00,40.00,0,-999,0,0.01
2012-9-30,61,50,33,-100,-100,-100,0,0,100,0.00,40.00,0,-999,0,0.01
2012-10-1,62,46,30,-100,-100,-100,0,0,100,0.00,40.00,0,-999,0,0.00
2012-10-2,68,51,31,-100,-100,-100,0,0,100,0.00,40.00,0,-999,0,0.00
2012-10-3,62,48,26,-100,-100,-100,0,0,100,0.00,40.00,0,-999,0,0.00
2012-10-4,49,31,15,-100,-100,-100,0,0,100,0.00,40.00,0,-999,0,0.00
2012-10-5,41,30,23,-100,-100,-100,0,0,100,0.00,40.00,0,-999,0,0.00
2012-10-6,32,24,11,-100,-100,-100,0,0,100,0.00,40.00,0,-999,0,0.05
2012-10-7,44,27,7,-100,-100,-100,0,0,100,0.00,40.00,0,-999,0,0.01
2012-10-8,56,45,30,-100,-100,-100,0,0,100,0.00,40.00,0,-999,0,0.00
2012-10-9,52,42,21,-100,-100,-100,0,0,100,0.00,40.00,0,-999,0,0.00
2012-10-10,61,40,17,-100,-100,-100,0,0,100,0.00,40.00,0,-999,0,0.00
2012-10-11,62,49,34,-100,-100,-100,0,0,100,0.00,40.00,0,-999,0,0.01
2012-10-12,63,40,29,-100,-100,-100,0,0,100,0.00,40.00,0,-999,0,0.17
2012-10-13,47,39,33,-100,-100,-100,0,0,100,0.00,40.00,0,-999,0,0.21
2012-10-14,53,42,32,-100,-100,-100,0,0,100,0.00,40.00,0,-999,0,0.04
2012-10-15,59,49,40,-100,-100,-100,0,0,100,0.00,40.00,0,-999,0,0.00
2012-10-16,56,46,38,-100,-100,-100,0,0,100,0.00,40.00,0,-999,0,0.15
2012-10-17,39,33,25,-100,-100,-100,0,0,100,0.00,40.00,0,-999,0,0.07
2012-10-18,46,35,22,-100,-100,-100,0,0,100,0.00,40.00,0,-999,0,0.00
2012-10-19,55,46,40,-100,-100,-100,0,0,100,0.00,40.00,0,-999,0,0.00
2012-10-20,61,50,37,-100,-100,-100,0,0,100,0.00,40.00,0,-999,0,0.00
2012-10-21,61,46,28,-100,-100,-100,0,0,100,0.00,40.00,0,-999,0,0.00
2012-10-22,58,47,33,-100,-100,-100,0,0,100,0.00,40.00,0,-999,0,0.00
2012-10-23,50,41,28,-100,-100,-100,0,0,100,0.00,40.00,0,-999,0,0.02
2012-10-24,30,27,21,-100,-100,-100,0,0,100,0.00,40.00,0,-999,0,0.03
2012-10-25,27,20,5,-100,-100,-100,0,0,100,0.00,40.00,0,-999,0,0.01
2012-10-26,27,21,14,-100,-100,-100,0,0,100,0.00,40.00,0,-999,0,0.06
2012-10-27,32,27,21,-100,-100,-100,0,0,100,0.00,40.00,0,-999,0,0.02
2012-10-28,40,35,30,-100,-100,-100,0,0,100,0.00,40.00,0,-999,0,0.36
2012-10-29,51,45,39,-100,-100,-100,0,0,100,0.00,40.00,0,-999,0,0.23
2012-10-30,53,45,36,-100,-100,-100,0,0,100,0.00,40.00,0,-999,0,0.01
2012-10-31,56,42,28,-100,-100,-100,0,0,100,0.00,40.00,0,-999,0,0.00
2012-11-1,56,41,24,-100,-100,-100,0,0,100,0.00,40.00,0,-999,0,0.00
2012-11-2,47,38,24,-100,-100,-100,0,0,100,0.00,40.00,0,-999,0,0.00
2012-11-3,48,34,18,-100,-100,-100,0,0,100,0.00,40.00,0,-999,0,0.00
2012-11-4,46,39,28,-100,-100,-100,0,0,100,0.00,40.00,0,-999,0,0.00
2012-11-5,48,39,24,-100,-100,-100,0,0,100,0.00,40.00,0,-999,0,0.00
2012-11-6,53,41,29,-100,-100,-100,0,0,100,0.00,40.00,0,-999,0,0.00
2012-11-7,58,44,30,-100,-100,-100,0,0,100,0.00,40.00,0,-999,0,0.00
2012-11-8,57,44,29,-100,-100,-100,0,0,100,0.00,40.00,0,-999,0,0.00
2012-11-9,53,44,30,-100,-100,-100,0,0,100,0.00,40.00,0,-999,0,0.02
2012-11-10,34,24,14,-100,-100,-100,0,0,100,0.00,40.00,0,-999,0,0.05
2012-11-11,14,11,9,-100,-100,-100,0,0,100,0.00,40.00,0,-999,0,0.02
2012-11-12,29,19,9,-100,-100,-100,0,0,100,0.00,40.00,0,-999,0,0.00
2012-11-13,31,25,20,-100,-100,-100,0,0,100,0.00,40.00,0,-999,0,0.01
2012-11-14,38,30,22,-100,-100,-100,0,0,100,0.00,40.00,0,-999,0,0.01
2012-11-15,37,27,10,-100,-100,-100,0,0,100,0.00,40.00,0,-999,0,0.16
2012-11-16,48,36,18,-100,-100,-100,0,0,100,0.00,40.00,0,-999,0,0.14
2012-11-17,42,37,32,-100,-100,-100,0,0,100,0.00,40.00,0,-999,0,0.02
2012-11-18,43,37,32,-100,-100,-100,0,0,100,0.00,40.00,0,-999,0,0.01
2012-11-19,43,37,29,-100,-100,-100,0,0,100,0.00,40.00,0,-999,0,0.01
2012-11-20,48,39,32,-100,-100,-100,0,0,100,0.00,40.00,0,-999,0,0.01
2012-11-21,52,43,38,-100,-100,-100,0,0,100,0.00,40.00,0,-999,0,0.00
2012-11-22,40,32,25,-100,-100,-100,0,0,100,0.00,40.00,0,-999,0,0.00
2012-11-23,43,34,20,-100,-100,-100,0,0,100,0.00,40.00,0,-999,0,0.00
2012-11-24,47,41,37,-100,-100,-100,0,0,100,0.00,40.00,0,-999,0,0.00
2012-11-25,43,36,30,-100,-100,-100,0,0,100,0.00,40.00,0,-999,0,0.00
2012-11-26,30,25,20,-100,-100,-100,0,0,100,0.00,40.00,0,-999,0,0.00
2012-11-27,43,35,27,-100,-100,-100,0,0,100,0.00,40.00,0,-999,0,0.00
2012-11-28,45,37,22,-100,-100,-100,0,0,100,0.00,40.00,0,-999,0,0.00
2012-11-29,45,38,30,-100,-100,-100,0,0,100,0.00,40.00,0,-999,0,0.00
2012-11-30,47,39,31,-100,-100,-100,0,0,100,0.00,40.00,0,-999,0,0.00
2012-12-1,45,39,36,-100,-100,-100,0,0,100,0.00,40.00,0,-999,0,0.00
2012-12-2,49,41,36,-100,-100,-100,0,0,100,0.00,40.00,0,-999,0,0.00
2012-12-3,38,28,23,-100,-100,-100,0,0,100,0.00,40.00,0,-999,0,0.06
2012-12-4,38,32,24,-100,-100,-100,0,0,100,0.00,40.00,0,-999,0,0.04
2012-12-5,47,39,35,-100,-100,-100,0,0,100,0.00,40.00,0,-999,0,0.01
2012-12-6,39,33,30,-100,-100,-100,0,0,100,0.00,40.00,0,-999,0,0.01
2012-12-7,30,26,22,-100,-100,-100,0,0,100,0.00,40.00,0,-999,0,0.00
2012-12-8,25,23,20,-100,-100,-100,0,0,100,0.00,40.00,0,-999,0,0.00
2012-12-9,11,6,2,-100,-100,-100,0,0,100,0.00,40.00,0,-999,0,0.01
2012-12-10,16,13,3,-100,-100,-100,0,0,100,0.00,40.00,0,-999,0,0.00
2012-12-11,24,17,-3,-100,-100,-100,0,0,100,0.00,40.00,0,-999,0,0.04
2012-12-12,35,28,20,-100,-100,-100,0,0,100,0.00,40.00,0,-999,0,0.04
2012-12-13,37,29,7,-100,-100,-100,0,0,100,0.00,40.00,0,-999,0,0.00
2012-12-14,41,27,7,-100,-100,-100,0,0,100,0.00,40.00,0,-999,0,0.02
2012-12-15,28,24,20,-100,-100,-100,0,0,100,0.00,40.00,0,-999,0,0.01
2012-12-16,21,18,16,-100,-100,-100,0,0,100,0.00,40.00,0,-999,0,0.01
2012-12-17,31,24,20,-100,-100,-100,0,0,100,0.00,40.00,0,-999,0,0.00
2012-12-18,19,15,11,-100,-100,-100,0,0,100,0.00,40.00,0,-999,0,0.00
2012-12-19,12,8,2,-100,-100,-100,0,0,100,0.00,40.00,0,-999,0,0.00
2012-12-20,27,15,2,-100,-100,-100,0,0,100,0.00,40.00,0,-999,0,0.00
2012-12-21,39,29,23,-100,-100,-100,0,0,100,0.00,40.00,0,-999,0,0.00
2012-12-22,43,31,26,-100,-100,-100,0,0,100,0.00,40.00,0,-999,0,0.00
2012-12-23,30,24,12,-100,-100,-100,0,0,100,0.00,40.00,0,-999,0,0.01
2012-12-24,29,24,14,-100,-100,-100,0,0,100,0.00,40.00,0,-999,0,0.04
2012-12-25,16,9,-3,-100,-100,-100,0,0,100,0.00,40.00,0,-999,0,0.01
2012-12-26,25,18,10,-100,-100,-100,0,0,100,0.00,40.00,0,-999,0,0.00
2012-12-27,15,11,6,-100,-100,-100,0,0,100,0.00,40.00,0,-999,0,0.00
2012-12-28,13,10,8,-100,-100,-100,0,0,100,0.00,40.00,0,-999,0,0.00
2012-12-29,23,13,-4,-100,-100,-100,0,0,100,0.00,40.00,0,-999,0,0.00
2012-12-30,26,12,-3,-100,-100,-100,0,0,100,0.00,40.00,0,-999,0,0.00
2012-12-31,16,2,-13,-100,-100,-100,0,0,100,0.00,40.00,0,-999,0,0.00
2013-1-1,15,7,-9,-100,-100,-100,0,0,100,0.00,40.00,0,-999,0,0.00